sensor_id;sensor_type;location;lat;lon;timestamp;pressure;altitude;pressure_sealevel;temperature;humidity
18500;BME280;9379;52.134;11.576;2023-06-26T00:00:10;100866.81;;;24.74;80.65
18500;BME280;9379;52.134;11.576;2023-06-26T00:02:37;100866.34;;;24.59;81.40
18500;BME280;9379;52.134;11.576;2023-06-26T00:05:05;100854.97;;;24.44;81.55
18500;BME280;9379;52.134;11.576;2023-06-26T00:07:32;100872.25;;;24.74;81.71
18500;BME280;9379;52.134;11.576;2023-06-26T00:10:00;100868.81;;;24.36;81.90
18500;BME280;9379;52.134;11.576;2023-06-26T00:12:30;100846.81;;;24.44;82.57
18500;BME280;9379;52.134;11.576;2023-06-26T00:14:57;100868.41;;;24.32;82.29
18500;BME280;9379;52.134;11.576;2023-06-26T00:17:24;100852.81;;;24.14;82.73
18500;BME280;9379;52.134;11.576;2023-06-26T00:19:51;100851.53;;;24.17;82.49
18500;BME280;9379;52.134;11.576;2023-06-26T00:22:18;100856.06;;;24.30;81.79
18500;BME280;9379;52.134;11.576;2023-06-26T00:24:45;100860.09;;;24.21;82.59
18500;BME280;9379;52.134;11.576;2023-06-26T00:27:12;100852.50;;;23.98;82.51
18500;BME280;9379;52.134;11.576;2023-06-26T00:29:40;100851.09;;;23.89;83.64
18500;BME280;9379;52.134;11.576;2023-06-26T00:32:07;100846.72;;;23.81;83.71
18500;BME280;9379;52.134;11.576;2023-06-26T00:34:34;100846.97;;;23.73;83.88
18500;BME280;9379;52.134;11.576;2023-06-26T00:37:01;100843.25;;;23.74;84.66
18500;BME280;9379;52.134;11.576;2023-06-26T00:39:29;100838.25;;;23.64;85.02
18500;BME280;9379;52.134;11.576;2023-06-26T00:41:56;100849.22;;;23.89;83.85
18500;BME280;9379;52.134;11.576;2023-06-26T00:44:23;100845.31;;;23.72;85.28
18500;BME280;9379;52.134;11.576;2023-06-26T00:46:51;100846.19;;;23.66;85.88
18500;BME280;9379;52.134;11.576;2023-06-26T00:49:18;100837.03;;;23.53;85.78
18500;BME280;9379;52.134;11.576;2023-06-26T00:51:46;100833.41;;;23.73;84.87
18500;BME280;9379;52.134;11.576;2023-06-26T00:54:13;100842.28;;;23.42;86.92
18500;BME280;9379;52.134;11.576;2023-06-26T00:56:45;100828.97;;;23.14;87.86
18500;BME280;9379;52.134;11.576;2023-06-26T00:59:13;100830.22;;;23.24;87.24
18500;BME280;9379;52.134;11.576;2023-06-26T01:01:40;100838.97;;;23.33;87.16
18500;BME280;9379;52.134;11.576;2023-06-26T01:04:08;100817.44;;;23.38;86.34
18500;BME280;9379;52.134;11.576;2023-06-26T01:06:45;100840.19;;;23.37;86.76
18500;BME280;9379;52.134;11.576;2023-06-26T01:09:16;100819.53;;;23.36;86.68
18500;BME280;9379;52.134;11.576;2023-06-26T01:11:44;100836.78;;;23.62;86.51
18500;BME280;9379;52.134;11.576;2023-06-26T01:14:11;100808.72;;;23.23;86.90
18500;BME280;9379;52.134;11.576;2023-06-26T01:16:39;100824.75;;;23.38;86.08
18500;BME280;9379;52.134;11.576;2023-06-26T01:19:10;100809.13;;;23.40;85.25
18500;BME280;9379;52.134;11.576;2023-06-26T01:21:42;100816.41;;;23.39;85.63
18500;BME280;9379;52.134;11.576;2023-06-26T01:24:15;100820.34;;;23.43;85.65
18500;BME280;9379;52.134;11.576;2023-06-26T01:26:48;100820.19;;;23.25;86.81
18500;BME280;9379;52.134;11.576;2023-06-26T01:29:17;100816.09;;;23.09;87.17
18500;BME280;9379;52.134;11.576;2023-06-26T01:31:46;100804.19;;;23.10;86.98
18500;BME280;9379;52.134;11.576;2023-06-26T01:34:15;100831.88;;;23.25;86.86
18500;BME280;9379;52.134;11.576;2023-06-26T01:36:42;100808.78;;;23.03;87.17
18500;BME280;9379;52.134;11.576;2023-06-26T01:39:09;100819.63;;;23.16;86.79
18500;BME280;9379;52.134;11.576;2023-06-26T01:41:36;100822.56;;;23.08;87.74
18500;BME280;9379;52.134;11.576;2023-06-26T01:44:11;100824.88;;;23.05;87.51
18500;BME280;9379;52.134;11.576;2023-06-26T01:46:48;100823.50;;;23.40;85.69
18500;BME280;9379;52.134;11.576;2023-06-26T01:49:24;100804.78;;;23.19;86.01
18500;BME280;9379;52.134;11.576;2023-06-26T01:51:55;100813.72;;;23.26;86.32
18500;BME280;9379;52.134;11.576;2023-06-26T01:54:25;100821.41;;;23.42;86.57
18500;BME280;9379;52.134;11.576;2023-06-26T01:56:57;100822.09;;;23.24;87.06
18500;BME280;9379;52.134;11.576;2023-06-26T01:59:28;100805.63;;;23.13;86.76
18500;BME280;9379;52.134;11.576;2023-06-26T02:02:00;100802.09;;;23.12;87.78
18500;BME280;9379;52.134;11.576;2023-06-26T02:04:27;100802.97;;;23.06;87.50
18500;BME280;9379;52.134;11.576;2023-06-26T02:06:54;100808.81;;;22.96;87.74
18500;BME280;9379;52.134;11.576;2023-06-26T02:09:21;100805.25;;;23.03;87.16
18500;BME280;9379;52.134;11.576;2023-06-26T02:11:48;100781.66;;;23.03;86.65
18500;BME280;9379;52.134;11.576;2023-06-26T02:14:15;100790.69;;;22.84;88.14
18500;BME280;9379;52.134;11.576;2023-06-26T02:16:43;100788.16;;;22.82;87.75
18500;BME280;9379;52.134;11.576;2023-06-26T02:19:10;100808.38;;;22.66;89.96
18500;BME280;9379;52.134;11.576;2023-06-26T02:21:37;100805.69;;;22.60;90.05
18500;BME280;9379;52.134;11.576;2023-06-26T02:24:05;100783.16;;;22.66;89.62
18500;BME280;9379;52.134;11.576;2023-06-26T02:26:32;100797.16;;;22.63;91.92
18500;BME280;9379;52.134;11.576;2023-06-26T02:28:58;100775.88;;;22.66;88.94
18500;BME280;9379;52.134;11.576;2023-06-26T02:31:25;100796.69;;;22.79;88.24
18500;BME280;9379;52.134;11.576;2023-06-26T02:33:54;100784.84;;;22.67;89.75
18500;BME280;9379;52.134;11.576;2023-06-26T02:36:21;100787.34;;;22.75;89.01
18500;BME280;9379;52.134;11.576;2023-06-26T02:38:47;100784.63;;;22.75;88.70
18500;BME280;9379;52.134;11.576;2023-06-26T02:41:14;100770.06;;;22.43;89.84
18500;BME280;9379;52.134;11.576;2023-06-26T02:43:41;100766.53;;;22.42;89.73
18500;BME280;9379;52.134;11.576;2023-06-26T02:46:08;100791.09;;;22.61;90.09
18500;BME280;9379;52.134;11.576;2023-06-26T02:48:35;100784.44;;;22.63;89.50
18500;BME280;9379;52.134;11.576;2023-06-26T02:51:03;100764.03;;;22.41;90.36
18500;BME280;9379;52.134;11.576;2023-06-26T02:53:31;100770.47;;;22.33;90.76
18500;BME280;9379;52.134;11.576;2023-06-26T02:55:58;100775.91;;;22.47;90.11
18500;BME280;9379;52.134;11.576;2023-06-26T02:58:25;100780.28;;;22.48;90.08
18500;BME280;9379;52.134;11.576;2023-06-26T03:00:51;100776.53;;;22.49;90.26
18500;BME280;9379;52.134;11.576;2023-06-26T03:03:20;100777.13;;;22.57;89.95
18500;BME280;9379;52.134;11.576;2023-06-26T03:05:47;100775.88;;;22.33;91.06
18500;BME280;9379;52.134;11.576;2023-06-26T03:08:15;100774.41;;;22.11;92.38
18500;BME280;9379;52.134;11.576;2023-06-26T03:10:42;100770.69;;;22.12;92.77
18500;BME280;9379;52.134;11.576;2023-06-26T03:13:09;100764.03;;;22.48;90.45
18500;BME280;9379;52.134;11.576;2023-06-26T03:15:36;100765.06;;;22.53;90.79
18500;BME280;9379;52.134;11.576;2023-06-26T03:18:02;100760.06;;;22.43;91.74
18500;BME280;9379;52.134;11.576;2023-06-26T03:20:29;100758.19;;;22.24;92.06
18500;BME280;9379;52.134;11.576;2023-06-26T03:22:56;100756.72;;;22.55;91.20
18500;BME280;9379;52.134;11.576;2023-06-26T03:25:24;100758.38;;;22.62;91.21
18500;BME280;9379;52.134;11.576;2023-06-26T03:27:51;100756.75;;;22.48;92.13
18500;BME280;9379;52.134;11.576;2023-06-26T03:30:17;100754.22;;;22.40;92.41
18500;BME280;9379;52.134;11.576;2023-06-26T03:32:44;100754.63;;;22.57;92.00
18500;BME280;9379;52.134;11.576;2023-06-26T03:35:11;100755.28;;;22.59;92.35
18500;BME280;9379;52.134;11.576;2023-06-26T03:37:38;100754.84;;;22.42;92.63
18500;BME280;9379;52.134;11.576;2023-06-26T03:40:06;100752.56;;;22.26;93.92
18500;BME280;9379;52.134;11.576;2023-06-26T03:42:35;100751.72;;;22.45;93.04
18500;BME280;9379;52.134;11.576;2023-06-26T03:45:01;100753.38;;;22.06;93.68
18500;BME280;9379;52.134;11.576;2023-06-26T03:47:28;100748.41;;;22.17;94.23
18500;BME280;9379;52.134;11.576;2023-06-26T03:49:55;100750.06;;;22.18;94.07
18500;BME280;9379;52.134;11.576;2023-06-26T03:52:22;100746.31;;;22.19;94.70
18500;BME280;9379;52.134;11.576;2023-06-26T03:54:49;100748.81;;;22.13;93.80
18500;BME280;9379;52.134;11.576;2023-06-26T03:57:15;100746.31;;;22.12;95.24
18500;BME280;9379;52.134;11.576;2023-06-26T03:59:44;100746.28;;;22.71;93.29
18500;BME280;9379;52.134;11.576;2023-06-26T04:02:10;100744.66;;;22.51;92.84
18500;BME280;9379;52.134;11.576;2023-06-26T04:04:37;100749.22;;;22.30;93.60
18500;BME280;9379;52.134;11.576;2023-06-26T04:07:04;100752.34;;;22.60;93.74
18500;BME280;9379;52.134;11.576;2023-06-26T04:09:31;100748.38;;;22.56;92.35
18500;BME280;9379;52.134;11.576;2023-06-26T04:11:58;100744.66;;;22.51;93.44
18500;BME280;9379;52.134;11.576;2023-06-26T04:14:25;100744.63;;;22.70;92.26
18500;BME280;9379;52.134;11.576;2023-06-26T04:16:53;100742.97;;;22.63;91.97
18500;BME280;9379;52.134;11.576;2023-06-26T04:19:20;100726.66;;;22.76;91.80
18500;BME280;9379;52.134;11.576;2023-06-26T04:21:47;100734.34;;;22.99;91.16
18500;BME280;9379;52.134;11.576;2023-06-26T04:24:14;100731.88;;;22.78;91.15
18500;BME280;9379;52.134;11.576;2023-06-26T04:26:40;100728.97;;;22.92;91.58
18500;BME280;9379;52.134;11.576;2023-06-26T04:29:07;100728.13;;;22.79;91.53
18500;BME280;9379;52.134;11.576;2023-06-26T04:31:34;100732.94;;;22.77;90.96
18500;BME280;9379;52.134;11.576;2023-06-26T04:34:02;100722.72;;;22.72;91.58
18500;BME280;9379;52.134;11.576;2023-06-26T04:36:29;100723.97;;;22.83;91.37
18500;BME280;9379;52.134;11.576;2023-06-26T04:38:57;100717.09;;;22.93;91.28
18500;BME280;9379;52.134;11.576;2023-06-26T04:41:24;100718.66;;;23.14;90.41
18500;BME280;9379;52.134;11.576;2023-06-26T04:43:51;100721.78;;;23.18;90.38
18500;BME280;9379;52.134;11.576;2023-06-26T04:46:18;100720.56;;;23.07;90.27
18500;BME280;9379;52.134;11.576;2023-06-26T04:48:44;100727.44;;;23.03;89.92
18500;BME280;9379;52.134;11.576;2023-06-26T04:51:13;100720.19;;;22.97;89.84
18500;BME280;9379;52.134;11.576;2023-06-26T04:53:40;100724.94;;;23.08;90.42
18500;BME280;9379;52.134;11.576;2023-06-26T04:56:07;100719.28;;;23.16;89.72
18500;BME280;9379;52.134;11.576;2023-06-26T04:58:34;100709.88;;;23.19;90.06
18500;BME280;9379;52.134;11.576;2023-06-26T05:01:01;100704.72;;;23.49;89.25
18500;BME280;9379;52.134;11.576;2023-06-26T05:03:28;100710.00;;;23.37;89.11
18500;BME280;9379;52.134;11.576;2023-06-26T05:05:54;100703.25;;;23.53;88.35
18500;BME280;9379;52.134;11.576;2023-06-26T05:08:23;100715.38;;;23.50;88.04
18500;BME280;9379;52.134;11.576;2023-06-26T05:10:52;100706.22;;;23.38;87.38
18500;BME280;9379;52.134;11.576;2023-06-26T05:13:23;100710.97;;;23.49;87.65
18500;BME280;9379;52.134;11.576;2023-06-26T05:15:50;100702.00;;;23.87;86.44
18500;BME280;9379;52.134;11.576;2023-06-26T05:18:16;100700.41;;;24.04;85.63
18500;BME280;9379;52.134;11.576;2023-06-26T05:20:44;100695.63;;;23.75;86.21
18500;BME280;9379;52.134;11.576;2023-06-26T05:23:12;100692.22;;;23.86;86.53
18500;BME280;9379;52.134;11.576;2023-06-26T05:25:40;100693.59;;;24.20;85.63
18500;BME280;9379;52.134;11.576;2023-06-26T05:28:08;100685.34;;;24.08;85.61
18500;BME280;9379;52.134;11.576;2023-06-26T05:30:36;100691.63;;;24.27;85.34
18500;BME280;9379;52.134;11.576;2023-06-26T05:33:03;100695.88;;;23.98;86.04
18500;BME280;9379;52.134;11.576;2023-06-26T05:35:31;100693.03;;;23.86;87.01
18500;BME280;9379;52.134;11.576;2023-06-26T05:37:58;100683.06;;;24.05;86.68
18500;BME280;9379;52.134;11.576;2023-06-26T05:40:26;100693.75;;;24.25;86.52
18500;BME280;9379;52.134;11.576;2023-06-26T05:42:54;100681.94;;;24.13;86.78
18500;BME280;9379;52.134;11.576;2023-06-26T05:45:21;100682.41;;;24.35;85.83
18500;BME280;9379;52.134;11.576;2023-06-26T05:47:48;100672.59;;;24.09;85.72
18500;BME280;9379;52.134;11.576;2023-06-26T05:50:17;100670.88;;;24.14;86.08
18500;BME280;9379;52.134;11.576;2023-06-26T05:52:45;100676.41;;;24.26;85.35
18500;BME280;9379;52.134;11.576;2023-06-26T05:55:13;100672.53;;;24.40;84.74
18500;BME280;9379;52.134;11.576;2023-06-26T05:57:40;100664.84;;;24.37;84.87
18500;BME280;9379;52.134;11.576;2023-06-26T06:00:10;100668.53;;;24.61;84.78
18500;BME280;9379;52.134;11.576;2023-06-26T06:02:37;100664.94;;;24.67;84.70
18500;BME280;9379;52.134;11.576;2023-06-26T06:05:04;100671.72;;;24.58;84.57
18500;BME280;9379;52.134;11.576;2023-06-26T06:07:31;100667.13;;;24.59;84.71
18500;BME280;9379;52.134;11.576;2023-06-26T06:09:59;100661.84;;;24.82;84.24
18500;BME280;9379;52.134;11.576;2023-06-26T06:12:26;100668.78;;;25.15;83.59
18500;BME280;9379;52.134;11.576;2023-06-26T06:14:53;100660.81;;;25.01;83.47
18500;BME280;9379;52.134;11.576;2023-06-26T06:17:21;100664.13;;;25.04;83.20
18500;BME280;9379;52.134;11.576;2023-06-26T06:19:48;100655.19;;;25.15;82.23
18500;BME280;9379;52.134;11.576;2023-06-26T06:22:15;100663.09;;;25.16;83.39
18500;BME280;9379;52.134;11.576;2023-06-26T06:24:43;100659.72;;;25.02;82.31
18500;BME280;9379;52.134;11.576;2023-06-26T06:27:10;100652.94;;;25.53;81.32
18500;BME280;9379;52.134;11.576;2023-06-26T06:29:37;100653.19;;;25.94;80.69
18500;BME280;9379;52.134;11.576;2023-06-26T06:32:07;100644.84;;;25.77;81.44
18500;BME280;9379;52.134;11.576;2023-06-26T06:34:35;100634.50;;;25.67;80.97
18500;BME280;9379;52.134;11.576;2023-06-26T06:37:02;100643.16;;;25.64;81.29
18500;BME280;9379;52.134;11.576;2023-06-26T06:39:29;100645.47;;;25.91;82.05
18500;BME280;9379;52.134;11.576;2023-06-26T06:41:56;100647.75;;;26.05;81.63
18500;BME280;9379;52.134;11.576;2023-06-26T06:44:23;100643.00;;;26.59;79.63
18500;BME280;9379;52.134;11.576;2023-06-26T06:46:50;100642.25;;;26.75;78.41
18500;BME280;9379;52.134;11.576;2023-06-26T06:49:16;100640.31;;;27.90;74.41
18500;BME280;9379;52.134;11.576;2023-06-26T06:51:44;100638.50;;;27.33;76.85
18500;BME280;9379;52.134;11.576;2023-06-26T06:54:11;100629.13;;;26.02;81.99
18500;BME280;9379;52.134;11.576;2023-06-26T06:56:38;100633.06;;;26.06;80.63
18500;BME280;9379;52.134;11.576;2023-06-26T06:59:08;100635.31;;;26.21;81.48
18500;BME280;9379;52.134;11.576;2023-06-26T07:01:34;100631.28;;;26.12;80.70
18500;BME280;9379;52.134;11.576;2023-06-26T07:04:04;100622.63;;;26.15;81.80
18500;BME280;9379;52.134;11.576;2023-06-26T07:06:31;100620.72;;;26.04;82.78
18500;BME280;9379;52.134;11.576;2023-06-26T07:09:00;100610.66;;;25.93;80.76
18500;BME280;9379;52.134;11.576;2023-06-26T07:11:26;100612.19;;;26.00;80.58
18500;BME280;9379;52.134;11.576;2023-06-26T07:13:54;100616.34;;;26.38;79.83
18500;BME280;9379;52.134;11.576;2023-06-26T07:16:21;100611.94;;;26.49;79.88
18500;BME280;9379;52.134;11.576;2023-06-26T07:18:48;100623.44;;;26.15;78.08
18500;BME280;9379;52.134;11.576;2023-06-26T07:21:16;100613.88;;;26.36;78.21
18500;BME280;9379;52.134;11.576;2023-06-26T07:23:42;100615.16;;;26.34;78.06
18500;BME280;9379;52.134;11.576;2023-06-26T07:26:11;100613.16;;;26.53;78.10
18500;BME280;9379;52.134;11.576;2023-06-26T07:28:37;100606.75;;;26.47;77.76
18500;BME280;9379;52.134;11.576;2023-06-26T07:31:04;100604.94;;;26.64;77.88
18500;BME280;9379;52.134;11.576;2023-06-26T07:33:31;100606.59;;;26.65;77.76
18500;BME280;9379;52.134;11.576;2023-06-26T07:35:57;100598.94;;;26.91;77.44
18500;BME280;9379;52.134;11.576;2023-06-26T07:38:24;100605.06;;;27.10;79.02
18500;BME280;9379;52.134;11.576;2023-06-26T07:40:51;100608.88;;;26.85;79.50
18500;BME280;9379;52.134;11.576;2023-06-26T07:43:19;100606.56;;;26.77;77.99
18500;BME280;9379;52.134;11.576;2023-06-26T07:45:46;100594.91;;;26.82;76.65
18500;BME280;9379;52.134;11.576;2023-06-26T07:48:13;100599.63;;;26.98;76.18
18500;BME280;9379;52.134;11.576;2023-06-26T07:50:39;100597.72;;;27.27;77.16
18500;BME280;9379;52.134;11.576;2023-06-26T07:53:06;100586.66;;;27.05;76.94
18500;BME280;9379;52.134;11.576;2023-06-26T07:55:33;100584.97;;;27.16;76.02
18500;BME280;9379;52.134;11.576;2023-06-26T07:58:00;100593.34;;;27.26;74.79
18500;BME280;9379;52.134;11.576;2023-06-26T08:00:29;100591.00;;;27.18;76.00
18500;BME280;9379;52.134;11.576;2023-06-26T08:02:55;100580.19;;;27.23;73.84
18500;BME280;9379;52.134;11.576;2023-06-26T08:05:22;100584.88;;;27.73;73.25
18500;BME280;9379;52.134;11.576;2023-06-26T08:07:49;100582.84;;;27.51;73.70
18500;BME280;9379;52.134;11.576;2023-06-26T08:10:16;100577.91;;;27.65;72.70
18500;BME280;9379;52.134;11.576;2023-06-26T08:12:43;100585.72;;;27.73;72.00
18500;BME280;9379;52.134;11.576;2023-06-26T08:15:10;100579.28;;;28.01;72.28
18500;BME280;9379;52.134;11.576;2023-06-26T08:17:38;100574.81;;;28.29;72.13
18500;BME280;9379;52.134;11.576;2023-06-26T08:20:06;100575.06;;;28.27;71.42
18500;BME280;9379;52.134;11.576;2023-06-26T08:22:34;100569.28;;;28.45;71.27
18500;BME280;9379;52.134;11.576;2023-06-26T08:25:02;100570.28;;;28.83;69.74
18500;BME280;9379;52.134;11.576;2023-06-26T08:27:29;100563.59;;;29.23;69.38
18500;BME280;9379;52.134;11.576;2023-06-26T08:29:56;100561.22;;;28.83;71.47
18500;BME280;9379;52.134;11.576;2023-06-26T08:32:22;100563.47;;;28.86;70.64
18500;BME280;9379;52.134;11.576;2023-06-26T08:34:51;100569.38;;;28.99;69.83
18500;BME280;9379;52.134;11.576;2023-06-26T08:37:18;100561.97;;;28.95;71.63
18500;BME280;9379;52.134;11.576;2023-06-26T08:39:45;100558.50;;;29.37;69.56
18500;BME280;9379;52.134;11.576;2023-06-26T08:42:12;100559.72;;;29.19;69.42
18500;BME280;9379;52.134;11.576;2023-06-26T09:41:26;100534.91;;;30.05;65.65
18500;BME280;9379;52.134;11.576;2023-06-26T09:43:53;100523.69;;;30.64;64.32
18500;BME280;9379;52.134;11.576;2023-06-26T09:46:27;100527.19;;;30.49;62.16
18500;BME280;9379;52.134;11.576;2023-06-26T09:48:58;100519.75;;;30.44;64.19
18500;BME280;9379;52.134;11.576;2023-06-26T09:51:26;100522.72;;;29.80;67.28
18500;BME280;9379;52.134;11.576;2023-06-26T09:53:52;100519.97;;;30.28;67.40
18500;BME280;9379;52.134;11.576;2023-06-26T09:56:19;100513.66;;;31.30;64.24
18500;BME280;9379;52.134;11.576;2023-06-26T09:58:49;100491.66;;;31.56;64.46
18500;BME280;9379;52.134;11.576;2023-06-26T10:01:17;100500.44;;;31.48;63.79
18500;BME280;9379;52.134;11.576;2023-06-26T10:03:44;100511.59;;;30.60;64.43
18500;BME280;9379;52.134;11.576;2023-06-26T10:06:12;100503.16;;;30.76;67.80
18500;BME280;9379;52.134;11.576;2023-06-26T10:08:39;100500.06;;;30.63;66.25
18500;BME280;9379;52.134;11.576;2023-06-26T10:11:08;100497.22;;;30.22;65.91
18500;BME280;9379;52.134;11.576;2023-06-26T10:13:40;100491.00;;;30.52;66.58
18500;BME280;9379;52.134;11.576;2023-06-26T10:16:13;100488.91;;;30.80;64.79
18500;BME280;9379;52.134;11.576;2023-06-26T10:18:43;100485.97;;;30.29;66.21
18500;BME280;9379;52.134;11.576;2023-06-26T10:21:11;100479.47;;;30.55;66.75
18500;BME280;9379;52.134;11.576;2023-06-26T10:23:42;100473.22;;;31.72;64.16
18500;BME280;9379;52.134;11.576;2023-06-26T10:26:11;100472.44;;;31.00;62.65
18500;BME280;9379;52.134;11.576;2023-06-26T10:28:40;100460.09;;;31.23;64.88
18500;BME280;9379;52.134;11.576;2023-06-26T10:31:09;100463.91;;;31.47;56.80
18500;BME280;9379;52.134;11.576;2023-06-26T10:33:39;100448.47;;;31.82;58.10
18500;BME280;9379;52.134;11.576;2023-06-26T10:36:14;100444.47;;;32.18;57.06
18500;BME280;9379;52.134;11.576;2023-06-26T10:38:51;100431.19;;;31.76;60.17
18500;BME280;9379;52.134;11.576;2023-06-26T10:41:22;100438.59;;;31.71;57.35
18500;BME280;9379;52.134;11.576;2023-06-26T10:43:51;100448.19;;;32.48;58.42
18500;BME280;9379;52.134;11.576;2023-06-26T10:46:19;100441.34;;;31.86;55.63
18500;BME280;9379;52.134;11.576;2023-06-26T10:48:59;100437.84;;;32.74;55.81
18500;BME280;9379;52.134;11.576;2023-06-26T10:51:26;100433.47;;;33.07;56.67
18500;BME280;9379;52.134;11.576;2023-06-26T10:53:54;100434.78;;;32.80;57.82
18500;BME280;9379;52.134;11.576;2023-06-26T10:56:21;100432.03;;;32.36;57.85
18500;BME280;9379;52.134;11.576;2023-06-26T10:59:15;100438.44;;;33.05;55.70
18500;BME280;9379;52.134;11.576;2023-06-26T11:01:43;100429.25;;;32.86;57.38
18500;BME280;9379;52.134;11.576;2023-06-26T11:04:14;100427.66;;;33.43;55.60
18500;BME280;9379;52.134;11.576;2023-06-26T11:06:45;100429.94;;;32.62;54.40
18500;BME280;9379;52.134;11.576;2023-06-26T11:09:17;100421.13;;;32.65;54.14
18500;BME280;9379;52.134;11.576;2023-06-26T11:11:58;100412.66;;;32.96;50.54
18500;BME280;9379;52.134;11.576;2023-06-26T11:14:30;100414.16;;;33.12;54.98
18500;BME280;9379;52.134;11.576;2023-06-26T11:16:58;100420.38;;;33.76;55.91
18500;BME280;9379;52.134;11.576;2023-06-26T11:19:27;100414.94;;;33.71;53.79
18500;BME280;9379;52.134;11.576;2023-06-26T11:22:03;100414.16;;;33.65;52.46
18500;BME280;9379;52.134;11.576;2023-06-26T11:24:30;100414.16;;;33.41;53.15
18500;BME280;9379;52.134;11.576;2023-06-26T11:27:01;100406.75;;;33.07;50.05
18500;BME280;9379;52.134;11.576;2023-06-26T11:29:31;100409.19;;;33.14;50.76
18500;BME280;9379;52.134;11.576;2023-06-26T11:31:59;100418.97;;;32.96;51.42
18500;BME280;9379;52.134;11.576;2023-06-26T11:34:31;100415.94;;;33.56;50.00
18500;BME280;9379;52.134;11.576;2023-06-26T11:36:58;100413.97;;;33.03;50.27
18500;BME280;9379;52.134;11.576;2023-06-26T11:39:26;100408.31;;;33.72;50.45
18500;BME280;9379;52.134;11.576;2023-06-26T11:41:53;100415.34;;;32.67;50.52
18500;BME280;9379;52.134;11.576;2023-06-26T11:44:21;100413.78;;;32.50;53.18
18500;BME280;9379;52.134;11.576;2023-06-26T11:46:51;100409.84;;;33.30;51.01
18500;BME280;9379;52.134;11.576;2023-06-26T11:49:20;100395.78;;;33.36;52.37
18500;BME280;9379;52.134;11.576;2023-06-26T11:51:50;100412.19;;;32.84;55.73
18500;BME280;9379;52.134;11.576;2023-06-26T11:54:23;100404.84;;;32.69;55.63
18500;BME280;9379;52.134;11.576;2023-06-26T11:56:57;100400.59;;;32.87;56.07
18500;BME280;9379;52.134;11.576;2023-06-26T11:59:31;100404.75;;;32.84;58.49
18500;BME280;9379;52.134;11.576;2023-06-26T12:01:58;100405.63;;;32.35;59.54
18500;BME280;9379;52.134;11.576;2023-06-26T12:04:25;100395.16;;;31.83;60.45
18500;BME280;9379;52.134;11.576;2023-06-26T12:06:53;100403.25;;;31.39;62.65
18500;BME280;9379;52.134;11.576;2023-06-26T12:09:22;100424.38;;;31.13;63.31
18500;BME280;9379;52.134;11.576;2023-06-26T12:11:53;100416.19;;;30.82;64.14
18500;BME280;9379;52.134;11.576;2023-06-26T12:14:22;100429.88;;;31.13;63.91
18500;BME280;9379;52.134;11.576;2023-06-26T12:16:49;100428.53;;;31.30;62.95
18500;BME280;9379;52.134;11.576;2023-06-26T12:19:16;100422.84;;;32.02;63.29
18500;BME280;9379;52.134;11.576;2023-06-26T12:21:47;100440.22;;;31.82;63.50
18500;BME280;9379;52.134;11.576;2023-06-26T12:24:19;100453.78;;;31.32;66.40
18500;BME280;9379;52.134;11.576;2023-06-26T12:26:50;100455.34;;;30.62;66.72
18500;BME280;9379;52.134;11.576;2023-06-26T12:29:19;100466.09;;;30.64;70.22
18500;BME280;9379;52.134;11.576;2023-06-26T12:31:49;100464.06;;;30.34;67.08
18500;BME280;9379;52.134;11.576;2023-06-26T12:34:18;100462.69;;;30.31;70.54
18500;BME280;9379;52.134;11.576;2023-06-26T12:36:47;100466.78;;;30.29;69.86
18500;BME280;9379;52.134;11.576;2023-06-26T12:39:16;100478.66;;;29.87;70.18
18500;BME280;9379;52.134;11.576;2023-06-26T12:41:48;100484.97;;;29.92;73.54
18500;BME280;9379;52.134;11.576;2023-06-26T12:44:19;100482.22;;;30.55;70.82
18500;BME280;9379;52.134;11.576;2023-06-26T12:46:48;100483.69;;;30.88;69.98
18500;BME280;9379;52.134;11.576;2023-06-26T12:49:15;100485.28;;;30.64;69.64
18500;BME280;9379;52.134;11.576;2023-06-26T12:51:43;100511.03;;;30.58;66.10
18500;BME280;9379;52.134;11.576;2023-06-26T12:54:10;100520.31;;;30.41;66.27
18500;BME280;9379;52.134;11.576;2023-06-26T12:56:36;100514.91;;;30.67;65.83
18500;BME280;9379;52.134;11.576;2023-06-26T12:59:05;100531.75;;;30.23;66.60
18500;BME280;9379;52.134;11.576;2023-06-26T13:01:31;100542.19;;;29.84;67.89
18500;BME280;9379;52.134;11.576;2023-06-26T13:03:59;100547.09;;;29.82;69.07
18500;BME280;9379;52.134;11.576;2023-06-26T13:06:26;100553.09;;;29.42;70.28
18500;BME280;9379;52.134;11.576;2023-06-26T13:08:53;100533.84;;;29.31;74.35
18500;BME280;9379;52.134;11.576;2023-06-26T13:11:19;100559.22;;;28.95;73.41
18500;BME280;9379;52.134;11.576;2023-06-26T13:13:47;100580.97;;;28.24;73.67
18500;BME280;9379;52.134;11.576;2023-06-26T13:16:15;100579.63;;;28.43;75.79
18500;BME280;9379;52.134;11.576;2023-06-26T13:18:44;100585.06;;;28.22;73.98
18500;BME280;9379;52.134;11.576;2023-06-26T13:21:10;100586.06;;;28.15;73.48
18500;BME280;9379;52.134;11.576;2023-06-26T13:23:37;100591.59;;;28.37;73.67
18500;BME280;9379;52.134;11.576;2023-06-26T13:26:04;100605.47;;;28.14;74.14
18500;BME280;9379;52.134;11.576;2023-06-26T13:28:31;100614.16;;;27.77;72.95
18500;BME280;9379;52.134;11.576;2023-06-26T13:30:58;100616.31;;;26.61;79.77
18500;BME280;9379;52.134;11.576;2023-06-26T13:33:26;100604.78;;;26.71;82.78
18500;BME280;9379;52.134;11.576;2023-06-26T13:35:53;100607.97;;;26.80;79.45
18500;BME280;9379;52.134;11.576;2023-06-26T13:38:20;100616.50;;;26.83;78.21
18500;BME280;9379;52.134;11.576;2023-06-26T13:40:50;100600.63;;;27.09;77.56
18500;BME280;9379;52.134;11.576;2023-06-26T13:43:16;100605.19;;;27.48;74.14
18500;BME280;9379;52.134;11.576;2023-06-26T13:45:43;100605.00;;;27.38;73.37
18500;BME280;9379;52.134;11.576;2023-06-26T13:48:10;100601.50;;;27.09;73.96
18500;BME280;9379;52.134;11.576;2023-06-26T13:50:38;100615.13;;;26.97;73.55